sensor_id;sensor_type;location;lat;lon;timestamp;P1;durP1;ratioP1;P2;durP2;ratioP2
635;SDS011;302;50.206;8.196;2022-12-07T00:03:35;27.83;;;23.77;;
635;SDS011;302;50.206;8.196;2022-12-07T00:06:01;26.73;;;21.65;;
635;SDS011;302;50.206;8.196;2022-12-07T00:08:26;24.70;;;19.77;;
635;SDS011;302;50.206;8.196;2022-12-07T00:10:52;23.30;;;19.10;;
635;SDS011;302;50.206;8.196;2022-12-07T00:13:17;20.73;;;16.77;;
635;SDS011;302;50.206;8.196;2022-12-07T00:15:42;19.90;;;16.23;;
635;SDS011;302;50.206;8.196;2022-12-07T00:18:07;22.97;;;16.53;;
635;SDS011;302;50.206;8.196;2022-12-07T00:20:32;18.20;;;15.60;;
635;SDS011;302;50.206;8.196;2022-12-07T00:22:58;23.47;;;16.43;;
635;SDS011;302;50.206;8.196;2022-12-07T00:25:23;22.60;;;18.23;;
635;SDS011;302;50.206;8.196;2022-12-07T00:27:48;20.40;;;16.37;;
635;SDS011;302;50.206;8.196;2022-12-07T00:30:13;22.03;;;17.30;;
635;SDS011;302;50.206;8.196;2022-12-07T00:32:39;23.40;;;18.57;;
635;SDS011;302;50.206;8.196;2022-12-07T00:35:04;25.30;;;18.53;;
635;SDS011;302;50.206;8.196;2022-12-07T00:37:29;21.23;;;17.10;;
635;SDS011;302;50.206;8.196;2022-12-07T00:39:54;22.33;;;18.50;;
635;SDS011;302;50.206;8.196;2022-12-07T00:42:19;24.65;;;20.08;;
635;SDS011;302;50.206;8.196;2022-12-07T00:44:45;23.65;;;16.90;;
635;SDS011;302;50.206;8.196;2022-12-07T00:47:10;25.87;;;20.40;;
635;SDS011;302;50.206;8.196;2022-12-07T00:49:35;28.50;;;23.37;;
635;SDS011;302;50.206;8.196;2022-12-07T00:52:00;24.77;;;20.15;;
635;SDS011;302;50.206;8.196;2022-12-07T00:54:25;22.47;;;18.07;;
635;SDS011;302;50.206;8.196;2022-12-07T00:56:51;21.58;;;16.98;;
635;SDS011;302;50.206;8.196;2022-12-07T00:59:16;21.63;;;16.30;;
635;SDS011;302;50.206;8.196;2022-12-07T01:01:41;19.30;;;15.80;;
635;SDS011;302;50.206;8.196;2022-12-07T01:04:06;19.37;;;14.83;;
635;SDS011;302;50.206;8.196;2022-12-07T01:06:32;17.23;;;13.70;;
635;SDS011;302;50.206;8.196;2022-12-07T01:08:57;15.63;;;12.67;;
635;SDS011;302;50.206;8.196;2022-12-07T01:11:24;16.00;;;13.47;;
635;SDS011;302;50.206;8.196;2022-12-07T01:13:50;14.48;;;11.63;;
635;SDS011;302;50.206;8.196;2022-12-07T01:16:15;17.43;;;12.47;;
635;SDS011;302;50.206;8.196;2022-12-07T01:18:41;15.40;;;11.90;;
635;SDS011;302;50.206;8.196;2022-12-07T01:21:08;15.80;;;12.83;;
635;SDS011;302;50.206;8.196;2022-12-07T01:23:34;14.52;;;11.68;;
635;SDS011;302;50.206;8.196;2022-12-07T01:26:00;14.30;;;11.03;;
635;SDS011;302;50.206;8.196;2022-12-07T01:28:26;13.77;;;11.02;;
635;SDS011;302;50.206;8.196;2022-12-07T01:30:58;12.60;;;11.13;;
635;SDS011;302;50.206;8.196;2022-12-07T01:33:23;12.77;;;10.70;;
635;SDS011;302;50.206;8.196;2022-12-07T01:35:49;11.67;;;10.47;;
635;SDS011;302;50.206;8.196;2022-12-07T01:38:14;13.60;;;11.27;;
635;SDS011;302;50.206;8.196;2022-12-07T01:40:39;11.03;;;9.93;;
635;SDS011;302;50.206;8.196;2022-12-07T01:43:10;15.60;;;11.43;;
635;SDS011;302;50.206;8.196;2022-12-07T01:48:03;11.65;;;9.95;;
635;SDS011;302;50.206;8.196;2022-12-07T01:50:29;10.77;;;9.50;;
635;SDS011;302;50.206;8.196;2022-12-07T01:52:56;10.43;;;8.88;;
635;SDS011;302;50.206;8.196;2022-12-07T01:55:24;13.63;;;9.93;;
635;SDS011;302;50.206;8.196;2022-12-07T01:57:50;9.63;;;8.60;;
635;SDS011;302;50.206;8.196;2022-12-07T02:00:17;11.02;;;9.23;;
635;SDS011;302;50.206;8.196;2022-12-07T02:02:43;11.60;;;9.07;;
635;SDS011;302;50.206;8.196;2022-12-07T02:05:10;10.57;;;8.50;;
635;SDS011;302;50.206;8.196;2022-12-07T02:07:36;9.90;;;8.57;;
635;SDS011;302;50.206;8.196;2022-12-07T02:10:16;11.93;;;9.23;;
635;SDS011;302;50.206;8.196;2022-12-07T02:12:42;12.45;;;9.50;;
635;SDS011;302;50.206;8.196;2022-12-07T02:15:07;11.23;;;9.60;;
635;SDS011;302;50.206;8.196;2022-12-07T02:20:33;10.45;;;8.27;;
635;SDS011;302;50.206;8.196;2022-12-07T02:27:53;10.63;;;9.52;;
635;SDS011;302;50.206;8.196;2022-12-07T02:30:21;11.25;;;9.27;;
635;SDS011;302;50.206;8.196;2022-12-07T02:32:55;11.57;;;9.77;;
635;SDS011;302;50.206;8.196;2022-12-07T02:35:24;11.00;;;9.20;;
635;SDS011;302;50.206;8.196;2022-12-07T02:38:11;9.85;;;8.85;;
635;SDS011;302;50.206;8.196;2022-12-07T02:40:38;13.45;;;10.60;;
635;SDS011;302;50.206;8.196;2022-12-07T02:43:15;12.70;;;9.85;;
635;SDS011;302;50.206;8.196;2022-12-07T02:45:42;11.88;;;9.93;;
635;SDS011;302;50.206;8.196;2022-12-07T02:48:08;13.20;;;10.50;;
635;SDS011;302;50.206;8.196;2022-12-07T02:50:38;12.77;;;10.73;;
635;SDS011;302;50.206;8.196;2022-12-07T02:53:03;13.88;;;11.75;;
635;SDS011;302;50.206;8.196;2022-12-07T02:55:29;13.80;;;11.97;;
635;SDS011;302;50.206;8.196;2022-12-07T03:00:29;14.57;;;12.48;;
635;SDS011;302;50.206;8.196;2022-12-07T03:15:45;15.40;;;13.57;;
635;SDS011;302;50.206;8.196;2022-12-07T03:18:11;14.90;;;13.25;;
635;SDS011;302;50.206;8.196;2022-12-07T03:20:37;15.52;;;12.45;;
635;SDS011;302;50.206;8.196;2022-12-07T03:23:04;17.85;;;14.00;;
635;SDS011;302;50.206;8.196;2022-12-07T03:25:30;15.82;;;13.13;;
635;SDS011;302;50.206;8.196;2022-12-07T03:28:00;17.88;;;14.15;;
635;SDS011;302;50.206;8.196;2022-12-07T03:30:28;19.42;;;15.18;;
635;SDS011;302;50.206;8.196;2022-12-07T03:35:25;18.73;;;14.18;;
635;SDS011;302;50.206;8.196;2022-12-07T03:40:19;19.77;;;15.45;;
635;SDS011;302;50.206;8.196;2022-12-07T03:42:47;19.13;;;15.00;;
635;SDS011;302;50.206;8.196;2022-12-07T03:45:13;19.03;;;15.27;;
635;SDS011;302;50.206;8.196;2022-12-07T03:50:15;18.52;;;15.20;;
635;SDS011;302;50.206;8.196;2022-12-07T03:52:53;18.00;;;15.15;;
635;SDS011;302;50.206;8.196;2022-12-07T03:55:21;20.77;;;16.25;;
635;SDS011;302;50.206;8.196;2022-12-07T03:57:48;21.48;;;17.38;;
635;SDS011;302;50.206;8.196;2022-12-07T04:00:14;20.70;;;16.38;;
635;SDS011;302;50.206;8.196;2022-12-07T04:02:40;21.67;;;16.43;;
635;SDS011;302;50.206;8.196;2022-12-07T04:05:05;17.70;;;15.40;;
635;SDS011;302;50.206;8.196;2022-12-07T04:07:31;20.03;;;15.97;;
635;SDS011;302;50.206;8.196;2022-12-07T04:09:56;21.53;;;16.50;;
635;SDS011;302;50.206;8.196;2022-12-07T04:12:21;20.20;;;16.77;;
635;SDS011;302;50.206;8.196;2022-12-07T04:14:47;21.03;;;16.70;;
635;SDS011;302;50.206;8.196;2022-12-07T04:17:12;22.40;;;16.63;;
635;SDS011;302;50.206;8.196;2022-12-07T04:19:37;21.60;;;16.50;;
635;SDS011;302;50.206;8.196;2022-12-07T04:22:03;21.23;;;17.47;;
635;SDS011;302;50.206;8.196;2022-12-07T04:24:28;21.83;;;16.90;;
635;SDS011;302;50.206;8.196;2022-12-07T04:26:54;23.47;;;17.67;;
635;SDS011;302;50.206;8.196;2022-12-07T04:29:20;23.10;;;17.00;;
635;SDS011;302;50.206;8.196;2022-12-07T04:31:45;22.90;;;17.60;;
635;SDS011;302;50.206;8.196;2022-12-07T04:34:11;23.13;;;18.43;;
635;SDS011;302;50.206;8.196;2022-12-07T04:36:37;22.37;;;18.20;;
635;SDS011;302;50.206;8.196;2022-12-07T04:39:03;20.92;;;17.35;;
635;SDS011;302;50.206;8.196;2022-12-07T04:41:28;23.13;;;18.80;;
635;SDS011;302;50.206;8.196;2022-12-07T04:43:54;25.80;;;18.23;;
635;SDS011;302;50.206;8.196;2022-12-07T04:46:20;25.10;;;17.85;;
635;SDS011;302;50.206;8.196;2022-12-07T04:48:45;22.93;;;18.57;;
635;SDS011;302;50.206;8.196;2022-12-07T04:51:10;24.83;;;18.40;;
635;SDS011;302;50.206;8.196;2022-12-07T04:53:35;24.77;;;18.80;;
635;SDS011;302;50.206;8.196;2022-12-07T04:56:00;24.83;;;19.40;;
635;SDS011;302;50.206;8.196;2022-12-07T04:58:26;22.77;;;17.40;;
635;SDS011;302;50.206;8.196;2022-12-07T05:00:53;25.53;;;18.57;;
635;SDS011;302;50.206;8.196;2022-12-07T05:03:18;22.70;;;18.52;;
635;SDS011;302;50.206;8.196;2022-12-07T05:05:43;25.13;;;19.85;;
635;SDS011;302;50.206;8.196;2022-12-07T05:08:08;26.40;;;20.27;;
635;SDS011;302;50.206;8.196;2022-12-07T05:10:33;27.47;;;19.40;;
635;SDS011;302;50.206;8.196;2022-12-07T05:12:59;25.83;;;18.23;;
635;SDS011;302;50.206;8.196;2022-12-07T05:15:24;26.10;;;20.73;;
635;SDS011;302;50.206;8.196;2022-12-07T05:17:49;23.90;;;19.90;;
635;SDS011;302;50.206;8.196;2022-12-07T05:20:14;26.70;;;19.57;;
635;SDS011;302;50.206;8.196;2022-12-07T05:22:39;23.83;;;20.20;;
635;SDS011;302;50.206;8.196;2022-12-07T05:25:05;25.47;;;19.73;;
635;SDS011;302;50.206;8.196;2022-12-07T05:27:30;25.57;;;19.57;;
635;SDS011;302;50.206;8.196;2022-12-07T05:29:55;27.03;;;22.43;;
635;SDS011;302;50.206;8.196;2022-12-07T05:32:20;25.67;;;20.00;;
635;SDS011;302;50.206;8.196;2022-12-07T05:34:45;27.17;;;22.03;;
635;SDS011;302;50.206;8.196;2022-12-07T05:37:11;25.37;;;20.70;;
635;SDS011;302;50.206;8.196;2022-12-07T05:39:36;25.07;;;21.03;;
635;SDS011;302;50.206;8.196;2022-12-07T05:42:02;25.35;;;19.20;;
635;SDS011;302;50.206;8.196;2022-12-07T05:44:40;23.10;;;18.02;;
635;SDS011;302;50.206;8.196;2022-12-07T05:47:05;19.97;;;17.83;;
635;SDS011;302;50.206;8.196;2022-12-07T05:49:31;26.10;;;22.37;;
635;SDS011;302;50.206;8.196;2022-12-07T05:51:56;35.73;;;30.90;;
635;SDS011;302;50.206;8.196;2022-12-07T05:54:21;27.70;;;24.70;;
635;SDS011;302;50.206;8.196;2022-12-07T05:56:47;29.93;;;24.73;;
635;SDS011;302;50.206;8.196;2022-12-07T05:59:12;27.83;;;22.40;;
635;SDS011;302;50.206;8.196;2022-12-07T06:04:15;25.00;;;21.33;;
635;SDS011;302;50.206;8.196;2022-12-07T06:06:40;23.60;;;18.90;;
635;SDS011;302;50.206;8.196;2022-12-07T06:09:05;20.30;;;17.30;;
635;SDS011;302;50.206;8.196;2022-12-07T06:11:30;24.73;;;17.93;;
635;SDS011;302;50.206;8.196;2022-12-07T06:14:14;24.20;;;18.60;;
635;SDS011;302;50.206;8.196;2022-12-07T06:16:39;22.65;;;18.48;;
635;SDS011;302;50.206;8.196;2022-12-07T06:19:04;21.50;;;17.00;;
635;SDS011;302;50.206;8.196;2022-12-07T06:21:29;19.20;;;15.80;;
635;SDS011;302;50.206;8.196;2022-12-07T06:23:54;22.47;;;17.90;;
635;SDS011;302;50.206;8.196;2022-12-07T06:26:20;21.23;;;17.37;;
635;SDS011;302;50.206;8.196;2022-12-07T06:28:45;20.87;;;16.90;;
635;SDS011;302;50.206;8.196;2022-12-07T06:31:10;19.13;;;15.13;;
635;SDS011;302;50.206;8.196;2022-12-07T06:33:35;23.93;;;20.03;;
635;SDS011;302;50.206;8.196;2022-12-07T06:36:00;21.87;;;18.87;;
635;SDS011;302;50.206;8.196;2022-12-07T06:38:26;23.15;;;18.15;;
635;SDS011;302;50.206;8.196;2022-12-07T06:40:51;20.27;;;16.87;;
635;SDS011;302;50.206;8.196;2022-12-07T06:43:16;18.03;;;16.13;;
635;SDS011;302;50.206;8.196;2022-12-07T06:45:41;18.17;;;14.80;;
635;SDS011;302;50.206;8.196;2022-12-07T06:48:06;18.10;;;16.13;;
635;SDS011;302;50.206;8.196;2022-12-07T06:50:32;17.63;;;14.20;;
635;SDS011;302;50.206;8.196;2022-12-07T06:52:57;17.70;;;15.23;;
635;SDS011;302;50.206;8.196;2022-12-07T06:55:22;17.53;;;15.63;;
635;SDS011;302;50.206;8.196;2022-12-07T06:57:47;18.63;;;14.73;;
635;SDS011;302;50.206;8.196;2022-12-07T07:00:13;16.10;;;14.50;;
635;SDS011;302;50.206;8.196;2022-12-07T07:02:38;21.37;;;16.23;;
635;SDS011;302;50.206;8.196;2022-12-07T07:05:03;18.85;;;16.83;;
635;SDS011;302;50.206;8.196;2022-12-07T07:07:28;21.20;;;19.07;;
635;SDS011;302;50.206;8.196;2022-12-07T07:09:54;20.30;;;18.10;;
635;SDS011;302;50.206;8.196;2022-12-07T07:12:19;18.97;;;15.37;;
635;SDS011;302;50.206;8.196;2022-12-07T07:14:44;21.47;;;17.30;;
635;SDS011;302;50.206;8.196;2022-12-07T07:17:09;18.00;;;15.93;;
635;SDS011;302;50.206;8.196;2022-12-07T07:19:34;15.63;;;13.73;;
635;SDS011;302;50.206;8.196;2022-12-07T07:22:00;18.25;;;14.90;;
635;SDS011;302;50.206;8.196;2022-12-07T07:24:25;19.50;;;17.40;;
635;SDS011;302;50.206;8.196;2022-12-07T07:26:50;16.40;;;14.70;;
635;SDS011;302;50.206;8.196;2022-12-07T07:29:15;18.00;;;15.87;;
635;SDS011;302;50.206;8.196;2022-12-07T07:31:40;21.10;;;15.80;;
635;SDS011;302;50.206;8.196;2022-12-07T07:34:06;17.30;;;15.40;;
635;SDS011;302;50.206;8.196;2022-12-07T07:36:31;19.37;;;15.70;;
635;SDS011;302;50.206;8.196;2022-12-07T07:38:56;16.33;;;14.23;;
635;SDS011;302;50.206;8.196;2022-12-07T07:41:21;21.00;;;16.93;;
635;SDS011;302;50.206;8.196;2022-12-07T07:43:46;20.13;;;16.50;;
635;SDS011;302;50.206;8.196;2022-12-07T07:46:11;21.03;;;17.67;;
635;SDS011;302;50.206;8.196;2022-12-07T07:48:37;17.70;;;15.02;;
635;SDS011;302;50.206;8.196;2022-12-07T07:51:06;15.37;;;13.87;;
635;SDS011;302;50.206;8.196;2022-12-07T07:53:32;16.73;;;14.65;;
635;SDS011;302;50.206;8.196;2022-12-07T07:55:57;13.70;;;12.30;;
635;SDS011;302;50.206;8.196;2022-12-07T07:58:22;14.40;;;12.88;;
635;SDS011;302;50.206;8.196;2022-12-07T08:00:47;15.63;;;12.80;;
635;SDS011;302;50.206;8.196;2022-12-07T08:03:12;13.73;;;12.10;;
635;SDS011;302;50.206;8.196;2022-12-07T08:05:38;14.40;;;12.73;;
635;SDS011;302;50.206;8.196;2022-12-07T08:08:03;15.30;;;13.57;;
635;SDS011;302;50.206;8.196;2022-12-07T08:10:28;15.33;;;13.60;;
635;SDS011;302;50.206;8.196;2022-12-07T08:12:53;21.90;;;18.37;;
635;SDS011;302;50.206;8.196;2022-12-07T08:15:38;26.98;;;21.48;;
635;SDS011;302;50.206;8.196;2022-12-07T08:18:04;33.23;;;23.80;;
635;SDS011;302;50.206;8.196;2022-12-07T08:20:30;20.20;;;16.87;;
635;SDS011;302;50.206;8.196;2022-12-07T08:22:55;26.83;;;24.10;;
635;SDS011;302;50.206;8.196;2022-12-07T08:25:20;17.50;;;15.67;;
635;SDS011;302;50.206;8.196;2022-12-07T08:27:47;18.17;;;15.80;;
635;SDS011;302;50.206;8.196;2022-12-07T08:30:12;18.60;;;16.53;;
635;SDS011;302;50.206;8.196;2022-12-07T08:32:38;22.77;;;17.60;;
635;SDS011;302;50.206;8.196;2022-12-07T08:35:03;18.38;;;15.35;;
635;SDS011;302;50.206;8.196;2022-12-07T08:37:29;19.30;;;16.30;;
635;SDS011;302;50.206;8.196;2022-12-07T08:39:54;21.10;;;15.50;;
635;SDS011;302;50.206;8.196;2022-12-07T08:42:19;15.90;;;13.50;;
635;SDS011;302;50.206;8.196;2022-12-07T08:44:46;15.63;;;14.02;;
635;SDS011;302;50.206;8.196;2022-12-07T08:47:12;21.13;;;18.87;;
635;SDS011;302;50.206;8.196;2022-12-07T08:49:38;18.83;;;16.87;;
635;SDS011;302;50.206;8.196;2022-12-07T08:52:04;16.70;;;14.38;;
635;SDS011;302;50.206;8.196;2022-12-07T08:54:30;16.60;;;14.90;;
635;SDS011;302;50.206;8.196;2022-12-07T08:56:56;16.10;;;14.40;;
635;SDS011;302;50.206;8.196;2022-12-07T08:59:21;17.47;;;14.30;;
635;SDS011;302;50.206;8.196;2022-12-07T09:01:47;15.90;;;14.20;;
635;SDS011;302;50.206;8.196;2022-12-07T09:04:12;21.97;;;16.10;;
635;SDS011;302;50.206;8.196;2022-12-07T09:06:37;16.17;;;14.50;;
635;SDS011;302;50.206;8.196;2022-12-07T09:09:03;14.60;;;13.10;;
635;SDS011;302;50.206;8.196;2022-12-07T09:11:28;16.50;;;14.30;;
635;SDS011;302;50.206;8.196;2022-12-07T09:13:54;17.20;;;14.23;;
635;SDS011;302;50.206;8.196;2022-12-07T09:16:19;17.17;;;15.03;;
635;SDS011;302;50.206;8.196;2022-12-07T09:18:44;21.17;;;16.05;;
635;SDS011;302;50.206;8.196;2022-12-07T09:21:09;18.30;;;15.70;;
635;SDS011;302;50.206;8.196;2022-12-07T09:23:35;15.37;;;13.63;;
635;SDS011;302;50.206;8.196;2022-12-07T09:26:01;16.90;;;14.30;;
635;SDS011;302;50.206;8.196;2022-12-07T09:28:26;16.52;;;13.68;;
635;SDS011;302;50.206;8.196;2022-12-07T09:30:51;18.53;;;15.20;;
635;SDS011;302;50.206;8.196;2022-12-07T09:33:17;17.10;;;14.70;;
635;SDS011;302;50.206;8.196;2022-12-07T09:35:45;18.10;;;15.67;;
635;SDS011;302;50.206;8.196;2022-12-07T09:38:10;16.60;;;14.85;;
635;SDS011;302;50.206;8.196;2022-12-07T09:40:36;16.90;;;14.73;;
635;SDS011;302;50.206;8.196;2022-12-07T09:43:01;15.83;;;13.87;;
635;SDS011;302;50.206;8.196;2022-12-07T09:47:51;16.73;;;14.90;;
635;SDS011;302;50.206;8.196;2022-12-07T09:50:21;15.70;;;14.10;;
635;SDS011;302;50.206;8.196;2022-12-07T09:52:47;15.55;;;13.32;;
635;SDS011;302;50.206;8.196;2022-12-07T09:55:14;16.27;;;14.57;;
635;SDS011;302;50.206;8.196;2022-12-07T09:57:40;21.13;;;14.93;;
635;SDS011;302;50.206;8.196;2022-12-07T10:00:15;14.83;;;13.33;;
635;SDS011;302;50.206;8.196;2022-12-07T10:02:42;14.27;;;12.65;;
635;SDS011;302;50.206;8.196;2022-12-07T10:05:11;15.65;;;13.93;;
635;SDS011;302;50.206;8.196;2022-12-07T10:07:37;13.90;;;12.40;;
635;SDS011;302;50.206;8.196;2022-12-07T10:10:03;17.50;;;15.63;;
635;SDS011;302;50.206;8.196;2022-12-07T10:12:29;19.33;;;16.95;;
635;SDS011;302;50.206;8.196;2022-12-07T10:14:56;12.70;;;11.43;;
635;SDS011;302;50.206;8.196;2022-12-07T10:17:32;14.32;;;11.93;;
635;SDS011;302;50.206;8.196;2022-12-07T10:23:00;15.50;;;13.23;;
635;SDS011;302;50.206;8.196;2022-12-07T10:25:27;15.63;;;12.20;;
635;SDS011;302;50.206;8.196;2022-12-07T10:27:57;12.13;;;10.73;;
635;SDS011;302;50.206;8.196;2022-12-07T10:30:23;12.35;;;10.80;;
635;SDS011;302;50.206;8.196;2022-12-07T10:32:48;12.70;;;10.50;;
635;SDS011;302;50.206;8.196;2022-12-07T10:37:41;10.60;;;9.38;;
635;SDS011;302;50.206;8.196;2022-12-07T10:40:23;9.67;;;8.70;;
635;SDS011;302;50.206;8.196;2022-12-07T10:43:00;9.30;;;8.40;;
635;SDS011;302;50.206;8.196;2022-12-07T10:45:25;9.50;;;8.23;;
635;SDS011;302;50.206;8.196;2022-12-07T10:48:08;9.70;;;8.30;;
635;SDS011;302;50.206;8.196;2022-12-07T10:53:17;8.93;;;8.02;;
635;SDS011;302;50.206;8.196;2022-12-07T11:01:04;9.20;;;8.32;;
635;SDS011;302;50.206;8.196;2022-12-07T11:06:10;9.53;;;7.90;;
635;SDS011;302;50.206;8.196;2022-12-07T11:08:52;9.05;;;8.18;;
635;SDS011;302;50.206;8.196;2022-12-07T11:11:23;14.45;;;8.48;;
635;SDS011;302;50.206;8.196;2022-12-07T11:16:44;10.35;;;7.95;;
635;SDS011;302;50.206;8.196;2022-12-07T11:21:39;10.63;;;7.90;;
635;SDS011;302;50.206;8.196;2022-12-07T11:24:13;7.25;;;6.55;;
635;SDS011;302;50.206;8.196;2022-12-07T11:31:58;9.33;;;7.00;;
635;SDS011;302;50.206;8.196;2022-12-07T11:34:39;9.30;;;7.97;;
635;SDS011;302;50.206;8.196;2022-12-07T11:37:11;4.97;;;4.47;;
635;SDS011;302;50.206;8.196;2022-12-07T11:39:49;7.75;;;6.95;;
635;SDS011;302;50.206;8.196;2022-12-07T11:44:46;6.13;;;5.53;;
635;SDS011;302;50.206;8.196;2022-12-07T11:47:26;7.07;;;6.30;;
635;SDS011;302;50.206;8.196;2022-12-07T11:49:54;7.65;;;6.80;;
635;SDS011;302;50.206;8.196;2022-12-07T11:52:43;6.72;;;5.57;;
635;SDS011;302;50.206;8.196;2022-12-07T11:55:16;6.05;;;5.45;;
635;SDS011;302;50.206;8.196;2022-12-07T11:57:44;6.50;;;5.43;;
635;SDS011;302;50.206;8.196;2022-12-07T12:00:13;4.72;;;4.32;;
635;SDS011;302;50.206;8.196;2022-12-07T12:02:48;6.72;;;5.35;;
635;SDS011;302;50.206;8.196;2022-12-07T12:05:18;5.30;;;4.80;;
635;SDS011;302;50.206;8.196;2022-12-07T12:07:44;6.35;;;5.70;;
635;SDS011;302;50.206;8.196;2022-12-07T12:12:58;5.25;;;4.57;;
635;SDS011;302;50.206;8.196;2022-12-07T12:15:29;5.15;;;4.65;;
635;SDS011;302;50.206;8.196;2022-12-07T12:20:31;6.05;;;5.40;;
635;SDS011;302;50.206;8.196;2022-12-07T12:23:07;5.82;;;5.32;;
635;SDS011;302;50.206;8.196;2022-12-07T12:25:40;6.18;;;5.57;;
635;SDS011;302;50.206;8.196;2022-12-07T12:28:10;5.97;;;4.75;;
635;SDS011;302;50.206;8.196;2022-12-07T12:30:42;5.75;;;5.00;;
635;SDS011;302;50.206;8.196;2022-12-07T12:33:20;5.20;;;4.67;;
635;SDS011;302;50.206;8.196;2022-12-07T12:35:48;4.55;;;3.95;;
635;SDS011;302;50.206;8.196;2022-12-07T12:38:32;7.70;;;5.35;;
635;SDS011;302;50.206;8.196;2022-12-07T12:40:58;7.37;;;5.60;;
635;SDS011;302;50.206;8.196;2022-12-07T12:50:18;5.07;;;4.57;;
635;SDS011;302;50.206;8.196;2022-12-07T12:51:57;6.05;;;4.25;;
635;SDS011;302;50.206;8.196;2022-12-07T12:54:33;4.15;;;3.75;;
635;SDS011;302;50.206;8.196;2022-12-07T12:57:10;6.20;;;4.65;;
635;SDS011;302;50.206;8.196;2022-12-07T12:59:38;4.15;;;3.67;;
635;SDS011;302;50.206;8.196;2022-12-07T13:04:48;5.60;;;4.50;;
635;SDS011;302;50.206;8.196;2022-12-07T13:07:46;3.70;;;3.33;;
635;SDS011;302;50.206;8.196;2022-12-07T13:09:59;6.47;;;3.83;;
635;SDS011;302;50.206;8.196;2022-12-07T13:12:24;4.20;;;3.70;;
635;SDS011;302;50.206;8.196;2022-12-07T13:14:54;4.80;;;4.23;;
635;SDS011;302;50.206;8.196;2022-12-07T13:19:57;7.47;;;5.35;;
635;SDS011;302;50.206;8.196;2022-12-07T13:27:32;9.20;;;5.85;;
635;SDS011;302;50.206;8.196;2022-12-07T13:29:58;6.63;;;5.83;;
635;SDS011;302;50.206;8.196;2022-12-07T13:32:24;5.00;;;4.33;;
635;SDS011;302;50.206;8.196;2022-12-07T13:34:49;9.50;;;4.50;;
635;SDS011;302;50.206;8.196;2022-12-07T13:39:49;3.63;;;3.33;;
635;SDS011;302;50.206;8.196;2022-12-07T13:42:19;3.50;;;3.20;;
635;SDS011;302;50.206;8.196;2022-12-07T13:44:46;3.28;;;2.90;;
635;SDS011;302;50.206;8.196;2022-12-07T13:47:30;3.60;;;3.20;;
635;SDS011;302;50.206;8.196;2022-12-07T13:49:56;3.30;;;3.10;;
635;SDS011;302;50.206;8.196;2022-12-07T13:52:26;3.35;;;3.05;;
635;SDS011;302;50.206;8.196;2022-12-07T13:57:47;5.85;;;3.60;;
635;SDS011;302;50.206;8.196;2022-12-07T14:00:18;4.78;;;3.28;;
635;SDS011;302;50.206;8.196;2022-12-07T14:02:54;3.53;;;3.22;;
635;SDS011;302;50.206;8.196;2022-12-07T14:05:24;3.60;;;3.30;;
635;SDS011;302;50.206;8.196;2022-12-07T14:10:26;6.93;;;4.18;;
635;SDS011;302;50.206;8.196;2022-12-07T14:12:52;4.72;;;3.55;;
635;SDS011;302;50.206;8.196;2022-12-07T14:15:21;5.73;;;4.00;;
635;SDS011;302;50.206;8.196;2022-12-07T14:17:51;4.70;;;4.30;;
635;SDS011;302;50.206;8.196;2022-12-07T14:20:30;5.35;;;4.85;;
635;SDS011;302;50.206;8.196;2022-12-07T14:22:56;7.40;;;6.00;;
635;SDS011;302;50.206;8.196;2022-12-07T14:25:22;7.67;;;6.97;;
635;SDS011;302;50.206;8.196;2022-12-07T14:27:52;8.07;;;7.30;;
635;SDS011;302;50.206;8.196;2022-12-07T14:30:20;7.90;;;5.10;;
635;SDS011;302;50.206;8.196;2022-12-07T14:32:45;4.30;;;3.90;;
635;SDS011;302;50.206;8.196;2022-12-07T14:35:14;8.40;;;5.90;;
635;SDS011;302;50.206;8.196;2022-12-07T14:37:39;9.98;;;7.47;;
635;SDS011;302;50.206;8.196;2022-12-07T14:40:05;5.67;;;4.63;;
635;SDS011;302;50.206;8.196;2022-12-07T14:42:31;5.60;;;4.83;;
635;SDS011;302;50.206;8.196;2022-12-07T14:44:58;11.02;;;9.15;;
635;SDS011;302;50.206;8.196;2022-12-07T14:47:24;12.30;;;8.60;;
635;SDS011;302;50.206;8.196;2022-12-07T14:49:49;7.03;;;5.90;;
635;SDS011;302;50.206;8.196;2022-12-07T14:52:16;6.60;;;5.13;;
635;SDS011;302;50.206;8.196;2022-12-07T14:54:42;6.63;;;4.35;;
635;SDS011;302;50.206;8.196;2022-12-07T14:57:08;5.70;;;4.80;;
635;SDS011;302;50.206;8.196;2022-12-07T14:59:33;4.95;;;4.55;;
635;SDS011;302;50.206;8.196;2022-12-07T15:01:59;5.60;;;3.93;;
635;SDS011;302;50.206;8.196;2022-12-07T15:04:24;5.63;;;4.00;;
635;SDS011;302;50.206;8.196;2022-12-07T15:06:59;4.60;;;3.90;;
635;SDS011;302;50.206;8.196;2022-12-07T15:09:25;7.78;;;3.72;;
635;SDS011;302;50.206;8.196;2022-12-07T15:11:50;5.40;;;3.47;;
635;SDS011;302;50.206;8.196;2022-12-07T15:14:15;5.10;;;3.40;;
635;SDS011;302;50.206;8.196;2022-12-07T15:16:41;5.67;;;4.57;;
635;SDS011;302;50.206;8.196;2022-12-07T15:19:11;5.75;;;5.25;;
635;SDS011;302;50.206;8.196;2022-12-07T15:21:37;5.57;;;4.65;;
635;SDS011;302;50.206;8.196;2022-12-07T15:24:02;3.90;;;3.50;;
635;SDS011;302;50.206;8.196;2022-12-07T15:26:27;3.50;;;2.83;;
635;SDS011;302;50.206;8.196;2022-12-07T15:28:53;4.97;;;3.23;;
635;SDS011;302;50.206;8.196;2022-12-07T15:31:19;3.03;;;2.47;;
635;SDS011;302;50.206;8.196;2022-12-07T15:33:44;3.20;;;2.20;;
635;SDS011;302;50.206;8.196;2022-12-07T15:36:16;3.40;;;2.50;;
635;SDS011;302;50.206;8.196;2022-12-07T15:38:43;3.63;;;2.50;;
635;SDS011;302;50.206;8.196;2022-12-07T15:41:08;4.27;;;2.60;;
635;SDS011;302;50.206;8.196;2022-12-07T15:43:33;5.97;;;2.72;;
635;SDS011;302;50.206;8.196;2022-12-07T15:46:17;4.55;;;2.60;;
635;SDS011;302;50.206;8.196;2022-12-07T15:48:42;4.50;;;3.00;;
635;SDS011;302;50.206;8.196;2022-12-07T15:51:08;4.47;;;2.00;;
635;SDS011;302;50.206;8.196;2022-12-07T15:53:34;5.65;;;3.88;;
635;SDS011;302;50.206;8.196;2022-12-07T15:55:59;6.97;;;4.40;;
635;SDS011;302;50.206;8.196;2022-12-07T15:58:24;7.43;;;6.73;;
635;SDS011;302;50.206;8.196;2022-12-07T16:00:50;7.53;;;6.03;;
635;SDS011;302;50.206;8.196;2022-12-07T16:03:15;6.50;;;5.93;;
635;SDS011;302;50.206;8.196;2022-12-07T16:05:40;7.57;;;6.77;;
635;SDS011;302;50.206;8.196;2022-12-07T16:08:05;7.32;;;5.25;;
635;SDS011;302;50.206;8.196;2022-12-07T16:10:30;6.87;;;6.00;;
635;SDS011;302;50.206;8.196;2022-12-07T16:12:56;11.33;;;9.43;;
635;SDS011;302;50.206;8.196;2022-12-07T16:15:21;10.97;;;9.67;;
635;SDS011;302;50.206;8.196;2022-12-07T16:17:46;13.40;;;11.63;;
635;SDS011;302;50.206;8.196;2022-12-07T16:20:11;11.43;;;10.33;;
635;SDS011;302;50.206;8.196;2022-12-07T16:22:36;9.37;;;7.20;;
635;SDS011;302;50.206;8.196;2022-12-07T16:25:02;6.33;;;5.57;;
635;SDS011;302;50.206;8.196;2022-12-07T16:27:27;6.37;;;5.87;;
635;SDS011;302;50.206;8.196;2022-12-07T16:29:52;5.90;;;5.30;;
635;SDS011;302;50.206;8.196;2022-12-07T16:32:17;7.57;;;4.97;;
635;SDS011;302;50.206;8.196;2022-12-07T16:34:43;5.77;;;3.77;;
635;SDS011;302;50.206;8.196;2022-12-07T16:37:08;4.87;;;4.20;;
635;SDS011;302;50.206;8.196;2022-12-07T16:39:33;4.30;;;3.60;;
635;SDS011;302;50.206;8.196;2022-12-07T16:41:59;3.60;;;2.30;;
635;SDS011;302;50.206;8.196;2022-12-07T16:44:24;5.00;;;2.50;;
635;SDS011;302;50.206;8.196;2022-12-07T16:46:49;2.70;;;2.20;;
635;SDS011;302;50.206;8.196;2022-12-07T16:49:14;3.63;;;2.70;;
635;SDS011;302;50.206;8.196;2022-12-07T16:51:40;4.60;;;2.30;;
635;SDS011;302;50.206;8.196;2022-12-07T16:54:08;4.30;;;3.15;;
635;SDS011;302;50.206;8.196;2022-12-07T16:56:33;3.67;;;3.30;;
635;SDS011;302;50.206;8.196;2022-12-07T16:58:58;4.90;;;3.03;;
635;SDS011;302;50.206;8.196;2022-12-07T17:01:24;3.87;;;3.00;;
635;SDS011;302;50.206;8.196;2022-12-07T17:03:49;4.03;;;3.07;;
635;SDS011;302;50.206;8.196;2022-12-07T17:06:21;3.90;;;3.40;;